createdAt,value
2018-07-11T00:01:57.591Z,15.60
2018-07-11T00:04:26.157Z,15.50
2018-07-11T00:06:54.623Z,15.30
2018-07-11T00:09:23.118Z,15.30
2018-07-11T00:11:53.278Z,15.20
2018-07-11T00:14:21.825Z,15.20
2018-07-11T00:17:25.458Z,15.10
2018-07-11T00:19:53.957Z,15.10
2018-07-11T00:22:22.487Z,15.00
2018-07-11T00:24:50.964Z,15.00
2018-07-11T00:27:20.252Z,15.00
2018-07-11T00:29:48.882Z,14.90
2018-07-11T00:32:17.566Z,14.90
2018-07-11T00:34:46.328Z,14.80
2018-07-11T00:37:15.017Z,14.80
2018-07-11T00:39:43.530Z,14.70
2018-07-11T00:42:12.110Z,14.70
2018-07-11T00:44:41.264Z,14.70
2018-07-11T00:47:10.251Z,14.60
2018-07-11T00:49:38.869Z,14.60
2018-07-11T00:52:07.382Z,14.50
2018-07-11T00:54:36.027Z,14.50
2018-07-11T00:57:04.722Z,14.40
2018-07-11T00:59:33.256Z,14.30
2018-07-11T01:02:06.203Z,14.30
2018-07-11T01:04:34.872Z,14.10
2018-07-11T01:07:04.856Z,14.10
2018-07-11T01:09:40.437Z,14.00
2018-07-11T01:12:09.357Z,14.00
2018-07-11T01:14:37.804Z,13.90
2018-07-11T01:17:10.550Z,13.90
2018-07-11T01:19:39.008Z,13.80
2018-07-11T01:22:07.507Z,13.70
2018-07-11T01:24:35.902Z,13.70
2018-07-11T01:27:04.362Z,13.60
2018-07-11T01:29:33.044Z,13.60
2018-07-11T01:32:01.535Z,13.60
2018-07-11T01:34:30.122Z,13.70
2018-07-11T01:36:58.666Z,13.60
2018-07-11T01:39:27.143Z,13.60
2018-07-11T01:41:55.606Z,13.60
2018-07-11T01:44:24.041Z,13.60
2018-07-11T01:46:53.076Z,13.50
2018-07-11T01:49:21.572Z,13.40
2018-07-11T01:52:01.143Z,13.30
2018-07-11T01:54:29.646Z,13.30
2018-07-11T01:56:58.183Z,13.20
2018-07-11T01:59:30.247Z,13.20
2018-07-11T02:01:58.732Z,13.20
2018-07-11T02:04:27.190Z,13.10
2018-07-11T02:06:55.825Z,13.00
2018-07-11T02:09:24.356Z,13.00
2018-07-11T02:11:53.140Z,12.90
2018-07-11T02:14:21.658Z,12.90
2018-07-11T02:16:50.170Z,12.90
2018-07-11T02:19:20.330Z,12.80
2018-07-11T02:21:49.814Z,12.80
2018-07-11T02:24:18.773Z,12.80
2018-07-11T02:26:47.229Z,12.80
2018-07-11T02:29:16.619Z,12.80
2018-07-11T02:31:45.060Z,12.70
2018-07-11T02:34:13.901Z,12.70
2018-07-11T02:36:42.446Z,12.60
2018-07-11T02:39:10.983Z,12.60
2018-07-11T02:41:39.430Z,12.60
2018-07-11T02:44:07.949Z,12.60
2018-07-11T02:46:41.672Z,12.60
2018-07-11T02:49:10.134Z,12.60
2018-07-11T02:51:38.566Z,12.60
2018-07-11T02:54:07.126Z,12.60
2018-07-11T02:56:35.614Z,12.50
2018-07-11T02:59:04.079Z,12.50
2018-07-11T03:01:32.495Z,12.40
2018-07-11T03:04:00.955Z,12.40
2018-07-11T03:06:29.399Z,12.40
2018-07-11T03:08:57.815Z,12.40
2018-07-11T03:11:26.299Z,12.30
2018-07-11T03:13:54.804Z,12.30
2018-07-11T03:16:23.456Z,12.20
2018-07-11T03:18:52.040Z,12.20
2018-07-11T03:21:20.577Z,12.10
2018-07-11T03:23:48.993Z,12.10
2018-07-11T03:26:17.521Z,12.10
2018-07-11T03:28:46.043Z,12.10
2018-07-11T03:31:14.568Z,12.00
2018-07-11T03:33:43.077Z,12.00
2018-07-11T03:36:11.584Z,12.00
2018-07-11T03:38:40.098Z,11.90
2018-07-11T03:41:08.603Z,11.90
2018-07-11T03:43:37.035Z,11.90
2018-07-11T03:46:05.509Z,11.80
2018-07-11T03:48:34.007Z,11.80
2018-07-11T03:51:02.550Z,11.60
2018-07-11T03:53:31.213Z,11.60
2018-07-11T03:55:59.674Z,11.50
2018-07-11T03:58:28.117Z,11.40
2018-07-11T04:00:56.564Z,11.40
2018-07-11T04:03:25.436Z,11.30
2018-07-11T04:05:54.107Z,11.30
2018-07-11T04:08:22.612Z,11.20
2018-07-11T04:10:51.053Z,11.20
2018-07-11T04:13:19.778Z,11.20
2018-07-11T04:15:48.246Z,11.20
2018-07-11T04:18:28.777Z,11.20
2018-07-11T04:20:57.696Z,11.10
2018-07-11T04:23:26.772Z,11.20
2018-07-11T04:25:55.298Z,11.20
2018-07-11T04:28:25.336Z,11.20
2018-07-11T04:30:53.858Z,11.20
2018-07-11T04:33:22.547Z,11.30
2018-07-11T04:35:51.852Z,11.30
2018-07-11T04:38:20.330Z,11.30
2018-07-11T04:40:49.292Z,11.40
2018-07-11T04:43:18.466Z,11.40
2018-07-11T04:45:47.758Z,11.50
2018-07-11T04:48:18.150Z,11.60
2018-07-11T04:50:47.586Z,11.70
2018-07-11T04:53:21.122Z,11.80
2018-07-11T04:55:51.061Z,11.90
2018-07-11T04:58:19.510Z,12.00
2018-07-11T05:00:48.104Z,12.10
2018-07-11T05:03:16.718Z,12.20
2018-07-11T05:05:45.240Z,12.40
2018-07-11T05:08:13.743Z,12.40
2018-07-11T05:10:42.198Z,12.50
2018-07-11T05:13:10.744Z,12.60
2018-07-11T05:15:39.237Z,12.60
2018-07-11T05:18:07.723Z,12.70
2018-07-11T05:20:36.300Z,12.80
2018-07-11T05:23:05.020Z,12.90
2018-07-11T05:25:33.527Z,13.00
2018-07-11T05:28:02.225Z,13.10
2018-07-11T05:30:31.265Z,13.20
2018-07-11T05:32:59.806Z,13.30
2018-07-11T05:35:28.295Z,13.40
2018-07-11T05:37:56.970Z,13.50
2018-07-11T05:40:25.563Z,13.70
2018-07-11T05:42:54.177Z,13.80
2018-07-11T05:45:22.757Z,13.90
2018-07-11T05:47:51.287Z,14.00
2018-07-11T05:50:19.894Z,14.20
2018-07-11T05:52:48.418Z,14.30
2018-07-11T05:55:16.931Z,14.40
2018-07-11T05:57:45.387Z,14.60
2018-07-11T06:00:14.042Z,14.70
2018-07-11T06:02:43.257Z,14.90
2018-07-11T06:05:11.799Z,15.00
2018-07-11T06:07:40.263Z,15.10
2018-07-11T06:10:08.904Z,15.30
2018-07-11T06:12:37.433Z,15.40
2018-07-11T06:15:06.149Z,15.60
2018-07-11T06:17:34.786Z,15.70
2018-07-11T06:20:03.631Z,15.80
2018-07-11T06:22:32.140Z,16.00
2018-07-11T06:25:00.589Z,16.00
2018-07-11T06:27:28.994Z,16.20
2018-07-11T06:29:58.248Z,16.20
2018-07-11T06:32:26.855Z,16.30
2018-07-11T06:34:55.318Z,16.50
2018-07-11T06:37:23.799Z,16.70
2018-07-11T06:39:52.238Z,16.90
2018-07-11T06:42:20.855Z,17.10
2018-07-11T06:44:49.366Z,17.30
2018-07-11T06:47:17.869Z,17.50
2018-07-11T06:49:47.461Z,17.60
2018-07-11T06:52:16.336Z,17.60
2018-07-11T06:54:44.965Z,17.70
2018-07-11T06:57:14.268Z,17.90
2018-07-11T06:59:42.814Z,18.00
2018-07-11T07:02:11.460Z,18.20
2018-07-11T07:04:40.060Z,18.50
2018-07-11T07:07:08.574Z,18.80
2018-07-11T07:09:37.100Z,18.80
2018-07-11T07:12:06.146Z,18.90
2018-07-11T07:14:34.743Z,18.70
2018-07-11T07:17:03.386Z,18.70
2018-07-11T07:19:32.064Z,18.90
2018-07-11T07:22:00.612Z,19.00
2018-07-11T07:24:29.119Z,19.20
2018-07-11T07:26:57.594Z,19.40
2018-07-11T07:29:26.033Z,19.70
2018-07-11T07:31:54.650Z,20.30
2018-07-11T07:34:23.187Z,21.10
2018-07-11T07:36:51.591Z,21.60
2018-07-11T07:39:20.057Z,21.80
2018-07-11T07:41:48.550Z,22.30
2018-07-11T07:44:17.141Z,23.10
2018-07-11T07:46:49.884Z,23.40
2018-07-11T07:49:18.382Z,23.50
2018-07-11T07:51:46.939Z,23.10
2018-07-11T07:54:15.527Z,23.30
2018-07-11T07:56:44.472Z,24.30
2018-07-11T07:59:15.365Z,24.60
2018-07-11T08:01:43.923Z,25.70
2018-07-11T08:04:12.985Z,27.20
2018-07-11T08:06:41.709Z,28.10
2018-07-11T08:09:10.223Z,28.50
2018-07-11T08:11:38.789Z,28.70
2018-07-11T08:14:07.314Z,29.20
2018-07-11T08:16:35.802Z,28.80
2018-07-11T08:19:04.429Z,28.30
2018-07-11T08:21:33.185Z,27.70
2018-07-11T08:24:12.988Z,27.80
2018-07-11T08:31:04.579Z,27.60
2018-07-11T08:33:44.139Z,27.70
2018-07-11T08:36:23.322Z,28.10
2018-07-11T08:39:32.623Z,27.70
2018-07-11T08:42:12.226Z,27.40
2018-07-11T08:44:49.796Z,28.50
2018-07-11T08:48:15.933Z,28.80
2018-07-11T08:50:54.255Z,29.10
2018-07-11T08:53:54.419Z,29.30
2018-07-11T08:58:40.591Z,30.00
2018-07-11T09:01:21.180Z,29.90
2018-07-11T09:05:04.233Z,29.40
2018-07-11T09:07:46.598Z,28.90
2018-07-11T09:14:36.229Z,28.20
2018-07-11T09:17:48.248Z,27.80
2018-07-11T09:20:38.888Z,26.60
2018-07-11T09:23:23.532Z,26.40
2018-07-11T09:25:52.038Z,27.00
2018-07-11T09:28:20.725Z,27.50
2018-07-11T09:30:49.496Z,28.00
2018-07-11T09:33:18.746Z,27.80
2018-07-11T09:35:47.343Z,27.60
2018-07-11T09:38:15.865Z,27.30
2018-07-11T09:40:44.426Z,27.10
2018-07-11T09:43:12.875Z,26.90
2018-07-11T09:45:42.104Z,26.10
2018-07-11T09:48:10.705Z,25.80
2018-07-11T09:50:39.243Z,26.00
2018-07-11T09:53:07.809Z,26.10
2018-07-11T09:55:36.349Z,26.40
2018-07-11T09:58:05.103Z,26.80
2018-07-11T10:00:38.876Z,27.30
2018-07-11T10:03:07.415Z,27.30
2018-07-11T10:05:36.286Z,27.60
2018-07-11T10:08:07.390Z,27.70
2018-07-11T10:10:35.869Z,27.40
2018-07-11T10:13:04.505Z,27.20
2018-07-11T10:15:33.473Z,27.10
2018-07-11T10:18:02.343Z,26.80
2018-07-11T10:20:31.203Z,26.30
2018-07-11T10:22:59.786Z,26.00
2018-07-11T10:25:28.309Z,25.80
2018-07-11T10:28:08.095Z,25.60
2018-07-11T10:30:36.623Z,25.40
2018-07-11T10:33:05.330Z,25.10
2018-07-11T10:35:33.901Z,25.10
2018-07-11T10:38:02.512Z,25.00
2018-07-11T10:40:31.177Z,24.80
2018-07-11T10:42:59.851Z,24.70
2018-07-11T10:45:28.879Z,24.80
2018-07-11T10:47:57.478Z,25.20
2018-07-11T10:50:26.287Z,25.50
2018-07-11T10:52:55.111Z,25.10
2018-07-11T10:55:23.681Z,24.80
2018-07-11T10:57:52.359Z,24.80
2018-07-11T11:00:36.668Z,25.20
2018-07-11T11:02:55.267Z,25.20
2018-07-11T11:05:23.899Z,25.80
2018-07-11T11:07:53.104Z,26.70
2018-07-11T11:10:21.662Z,28.20
2018-07-11T11:12:50.298Z,28.90
2018-07-11T11:15:19.096Z,29.00
2018-07-11T11:17:47.628Z,28.70
2018-07-11T11:20:19.034Z,28.20
2018-07-11T11:22:47.600Z,28.10
2018-07-11T11:25:16.283Z,28.10
2018-07-11T11:27:44.931Z,27.50
2018-07-11T11:30:13.498Z,26.90
2018-07-11T11:32:42.454Z,26.70
2018-07-11T11:35:11.012Z,26.40
2018-07-11T11:37:39.594Z,25.90
2018-07-11T11:40:14.404Z,25.60
2018-07-11T11:42:43.014Z,25.30
2018-07-11T11:45:11.603Z,25.30
2018-07-11T11:47:40.286Z,25.30
2018-07-11T11:50:09.045Z,25.50
2018-07-11T11:52:37.975Z,25.80
2018-07-11T11:55:06.494Z,26.10
2018-07-11T11:57:35.034Z,26.50
2018-07-11T12:00:03.588Z,26.90
2018-07-11T12:02:32.103Z,27.40
2018-07-11T12:05:00.692Z,27.80
2018-07-11T12:07:30.277Z,27.90
2018-07-11T12:09:58.787Z,27.80
2018-07-11T12:12:27.341Z,28.20
2018-07-11T12:14:55.857Z,27.70
2018-07-11T12:17:24.381Z,27.70
2018-07-11T12:19:52.924Z,27.90
2018-07-11T12:22:23.645Z,28.00
2018-07-11T12:24:52.595Z,28.50
2018-07-11T12:27:21.510Z,28.80
2018-07-11T12:29:51.331Z,28.70
2018-07-11T12:32:20.435Z,28.90
2018-07-11T12:34:49.012Z,29.30
2018-07-11T12:37:18.321Z,29.30
2018-07-11T12:39:52.636Z,28.90
2018-07-11T12:42:21.218Z,29.00
2018-07-11T12:44:49.818Z,28.90
2018-07-11T12:47:24.080Z,28.70
2018-07-11T12:49:52.670Z,29.20
2018-07-11T12:52:21.112Z,30.00
2018-07-11T12:54:49.596Z,30.10
2018-07-11T12:57:18.116Z,29.80
2018-07-11T12:59:47.194Z,29.40
2018-07-11T13:02:16.171Z,28.90
2018-07-11T13:04:44.852Z,28.80
2018-07-11T13:07:13.582Z,28.60
2018-07-11T13:09:42.326Z,28.40
2018-07-11T13:12:11.071Z,28.20
2018-07-11T13:14:39.680Z,28.10
2018-07-11T13:17:08.264Z,28.10
2018-07-11T13:19:36.857Z,28.10
2018-07-11T13:22:05.458Z,28.20
2018-07-11T13:24:34.014Z,28.00
2018-07-11T13:27:02.632Z,28.20
2018-07-11T13:29:31.473Z,28.40
2018-07-11T13:32:00.180Z,28.10
2018-07-11T13:34:28.744Z,28.10
2018-07-11T13:36:57.344Z,28.60
2018-07-11T13:39:26.153Z,28.50
2018-07-11T13:41:54.783Z,28.30
2018-07-11T13:44:23.382Z,28.70
2018-07-11T13:46:52.068Z,29.40
2018-07-11T13:49:20.835Z,30.00
2018-07-11T13:51:49.872Z,30.40
2018-07-11T13:54:18.747Z,30.50
2018-07-11T13:56:47.381Z,30.30
2018-07-11T13:59:16.673Z,30.10
2018-07-11T14:01:45.349Z,30.00
2018-07-11T14:04:14.033Z,29.60
2018-07-11T14:06:42.822Z,29.60
2018-07-11T14:09:11.585Z,29.60
2018-07-11T14:11:40.261Z,29.60
2018-07-11T14:14:08.939Z,29.50
2018-07-11T14:16:37.502Z,29.00
2018-07-11T14:19:06.039Z,28.40
2018-07-11T14:21:34.633Z,28.20
2018-07-11T14:24:03.270Z,28.30
2018-07-11T14:26:33.617Z,28.70
2018-07-11T14:29:03.609Z,28.80
2018-07-11T14:31:35.366Z,29.00
2018-07-11T14:34:05.556Z,29.20
2018-07-11T14:36:34.823Z,29.20
2018-07-11T14:39:04.863Z,29.20
2018-07-11T14:41:33.601Z,29.70
2018-07-11T14:44:02.601Z,29.90
2018-07-11T14:46:31.647Z,29.80
2018-07-11T14:49:00.829Z,30.10
2018-07-11T14:51:29.672Z,30.10
2018-07-11T14:53:58.569Z,29.90
2018-07-11T14:56:27.245Z,29.50
2018-07-11T14:58:57.048Z,29.50
2018-07-11T15:01:25.756Z,29.40
2018-07-11T15:03:54.503Z,29.00
2018-07-11T15:06:23.666Z,28.90
2018-07-11T15:08:53.093Z,28.70
2018-07-11T15:11:21.984Z,28.40
2018-07-11T15:13:51.069Z,28.20
2018-07-11T15:16:19.702Z,27.80
2018-07-11T15:18:48.868Z,27.60
2018-07-11T15:21:17.718Z,27.30
2018-07-11T15:23:46.334Z,27.10
2018-07-11T15:26:15.049Z,27.00
2018-07-11T15:28:43.681Z,27.00
2018-07-11T15:31:12.538Z,26.70
2018-07-11T15:33:41.202Z,26.90
2018-07-11T15:36:09.995Z,27.10
2018-07-11T15:38:38.757Z,27.20
2018-07-11T15:41:07.801Z,27.10
2018-07-11T15:43:36.518Z,27.20
2018-07-11T15:46:06.121Z,27.40
2018-07-11T15:48:34.863Z,27.30
2018-07-11T15:51:03.584Z,27.30
2018-07-11T15:53:32.207Z,27.50
2018-07-11T15:56:00.799Z,27.60
2018-07-11T15:58:31.905Z,27.70
2018-07-11T16:01:04.715Z,27.70
2018-07-11T16:03:35.650Z,27.60
2018-07-11T16:06:04.263Z,27.60
2018-07-11T16:08:32.843Z,27.50
2018-07-11T16:11:04.027Z,27.50
2018-07-11T16:13:32.935Z,27.40
2018-07-11T16:16:01.943Z,27.40
2018-07-11T16:18:30.556Z,27.10
2018-07-11T16:20:59.173Z,27.00
2018-07-11T16:23:28.107Z,27.00
2018-07-11T16:25:56.855Z,27.10
2018-07-11T16:28:25.434Z,27.10
2018-07-11T16:30:53.960Z,27.10
2018-07-11T16:33:22.485Z,27.10
2018-07-11T16:35:50.974Z,27.10
2018-07-11T16:38:19.626Z,27.10
2018-07-11T16:40:48.254Z,27.20
2018-07-11T16:43:16.864Z,27.20
2018-07-11T16:45:45.585Z,27.10
2018-07-11T16:48:14.038Z,27.00
2018-07-11T16:50:42.736Z,26.70
2018-07-11T16:53:11.502Z,26.30
2018-07-11T16:55:40.142Z,25.90
2018-07-11T16:58:10.014Z,25.90
2018-07-11T17:00:38.589Z,25.80
2018-07-11T17:03:09.811Z,25.80
2018-07-11T17:05:47.201Z,25.60
2018-07-11T17:08:17.582Z,25.50
2018-07-11T17:10:46.618Z,25.40
2018-07-11T17:13:20.796Z,25.30
2018-07-11T17:15:50.618Z,25.10
2018-07-11T17:18:34.297Z,25.00
2018-07-11T17:21:07.984Z,25.00
2018-07-11T17:23:43.664Z,24.80
2018-07-11T17:26:12.692Z,24.80
2018-07-11T17:28:42.632Z,24.60
2018-07-11T17:31:11.283Z,24.40
2018-07-11T17:33:39.880Z,24.30
2018-07-11T17:36:08.669Z,24.20
2018-07-11T17:38:37.529Z,24.10
2018-07-11T17:41:06.871Z,24.00
2018-07-11T17:43:41.798Z,23.90
2018-07-11T17:46:13.090Z,23.80
2018-07-11T17:48:48.317Z,23.70
2018-07-11T17:51:26.967Z,23.60
2018-07-11T17:53:57.659Z,23.50
2018-07-11T17:57:31.144Z,23.40
2018-07-11T18:00:06.233Z,23.30
2018-07-11T18:02:43.328Z,23.10
2018-07-11T18:05:34.436Z,23.00
2018-07-11T18:08:07.170Z,23.00
2018-07-11T18:10:53.114Z,22.80
2018-07-11T18:13:32.661Z,22.80
2018-07-11T18:16:29.071Z,22.70
2018-07-11T18:20:11.061Z,22.60
2018-07-11T18:22:49.839Z,22.50
2018-07-11T18:25:23.313Z,22.40
2018-07-11T18:30:07.133Z,22.30
2018-07-11T18:48:44.971Z,22.10
2018-07-11T18:51:36.906Z,21.40
2018-07-11T18:57:53.827Z,21.20
2018-07-11T19:00:33.567Z,21.10
2018-07-11T19:03:12.933Z,20.90
2018-07-11T19:05:55.949Z,20.80
2018-07-11T19:08:33.920Z,20.70
2018-07-11T19:11:04.143Z,20.60
2018-07-11T19:13:34.918Z,20.50
2018-07-11T19:18:21.602Z,20.40
2018-07-11T19:20:56.772Z,20.30
2018-07-11T19:23:36.318Z,20.10
2018-07-11T19:26:16.634Z,19.90
2018-07-11T19:29:18.353Z,19.70
2018-07-11T19:32:12.124Z,19.40
2018-07-11T19:34:46.996Z,19.20
2018-07-11T19:37:41.343Z,18.90
2018-07-11T19:40:19.130Z,18.70
2018-07-11T19:45:14.099Z,18.50
2018-07-11T19:47:55.406Z,18.30
2018-07-11T19:50:47.392Z,18.10
2018-07-11T19:53:27.746Z,17.90
2018-07-11T19:56:16.274Z,17.80
2018-07-11T19:58:45.002Z,17.60
2018-07-11T20:01:13.719Z,17.50
2018-07-11T20:03:42.435Z,17.30
2018-07-11T20:06:11.205Z,17.10
2018-07-11T20:08:39.884Z,17.00
2018-07-11T20:11:08.521Z,16.90
2018-07-11T20:13:37.307Z,16.80
2018-07-11T20:16:06.024Z,16.70
2018-07-11T20:18:34.488Z,16.50
2018-07-11T20:21:02.928Z,16.40
2018-07-11T20:23:31.404Z,16.30
2018-07-11T20:26:00.272Z,16.20
2018-07-11T20:28:29.027Z,16.10
2018-07-11T20:30:57.684Z,16.00
2018-07-11T20:33:26.355Z,15.90
2018-07-11T20:35:56.116Z,15.80
2018-07-11T20:38:25.400Z,15.70
2018-07-11T20:40:54.738Z,15.60
2018-07-11T20:43:24.075Z,15.60
2018-07-11T20:45:52.781Z,15.50
2018-07-11T20:48:21.376Z,15.50
2018-07-11T20:50:50.056Z,15.50
2018-07-11T20:53:18.813Z,15.50
2018-07-11T20:55:48.106Z,15.50
2018-07-11T20:58:27.650Z,15.40
2018-07-11T21:01:07.606Z,15.40
2018-07-11T21:05:53.230Z,15.40
2018-07-11T21:08:33.106Z,15.40
2018-07-11T21:13:17.126Z,15.40
2018-07-11T21:16:57.957Z,15.50
2018-07-11T21:19:26.551Z,15.50
2018-07-11T21:21:55.438Z,15.50
2018-07-11T21:24:24.138Z,15.50
2018-07-11T21:26:52.860Z,15.60
2018-07-11T21:29:21.500Z,15.60
2018-07-11T21:31:50.141Z,15.60
2018-07-11T21:34:18.736Z,15.60
2018-07-11T21:36:47.354Z,15.60
2018-07-11T21:39:15.865Z,15.60
2018-07-11T21:41:44.445Z,15.60
2018-07-11T21:44:13.016Z,15.70
2018-07-11T21:46:41.637Z,15.60
2018-07-11T21:49:10.342Z,15.60
2018-07-11T21:51:39.041Z,15.60
2018-07-11T21:54:07.663Z,15.60
2018-07-11T21:56:36.363Z,15.50
2018-07-11T21:59:04.904Z,15.50
2018-07-11T22:01:33.562Z,15.50
2018-07-11T22:04:02.332Z,15.40
2018-07-11T22:06:30.895Z,15.40
2018-07-11T22:08:59.604Z,15.40
2018-07-11T22:11:28.333Z,15.30
2018-07-11T22:13:57.025Z,15.20
2018-07-11T22:16:25.621Z,15.10
2018-07-11T22:18:54.310Z,15.10
2018-07-11T22:21:21.655Z,15.10
2018-07-11T22:23:49.139Z,15.00
2018-07-11T22:26:16.507Z,15.00
2018-07-11T22:28:43.949Z,15.00
2018-07-11T22:31:12.157Z,14.90
2018-07-11T22:33:39.676Z,14.90
2018-07-11T22:36:07.192Z,14.90
2018-07-11T22:38:34.671Z,14.80
2018-07-11T22:41:02.146Z,14.70
2018-07-11T22:43:29.696Z,14.70
2018-07-11T22:45:58.690Z,14.70
2018-07-11T22:48:26.089Z,14.70
2018-07-11T22:50:54.737Z,14.60
2018-07-11T22:53:22.137Z,14.70
2018-07-11T22:55:49.706Z,14.70
2018-07-11T22:58:17.130Z,14.70
2018-07-11T23:00:44.552Z,14.70
2018-07-11T23:03:11.910Z,14.80
2018-07-11T23:05:39.284Z,14.80
2018-07-11T23:08:06.626Z,14.80
2018-07-11T23:10:34.020Z,14.90
2018-07-11T23:13:04.975Z,14.90
2018-07-11T23:15:32.937Z,14.90
2018-07-11T23:18:00.384Z,15.00
2018-07-11T23:20:28.016Z,15.00
2018-07-11T23:22:55.517Z,15.00
2018-07-11T23:25:22.950Z,15.00
2018-07-11T23:27:50.314Z,15.10
2018-07-11T23:30:17.814Z,15.10
2018-07-11T23:32:45.372Z,15.10
2018-07-11T23:35:14.332Z,15.10
2018-07-11T23:37:45.720Z,15.20
2018-07-11T23:40:15.834Z,15.20
2018-07-11T23:42:44.749Z,15.10
2018-07-11T23:45:14.430Z,15.10
2018-07-11T23:47:43.564Z,15.20
2018-07-11T23:50:11.058Z,15.20
2018-07-11T23:52:39.413Z,15.20
2018-07-11T23:55:10.380Z,15.20
2018-07-11T23:57:37.937Z,15.20
